createdAt,value
2018-01-19T15:26:46.686Z,100214.70
2018-01-19T15:29:15.040Z,100214.02
2018-01-19T15:31:43.328Z,100214.84
2018-01-19T15:34:11.860Z,100210.11
2018-01-19T15:36:40.372Z,100208.95
2018-01-19T15:39:08.664Z,100207.73
2018-01-19T15:41:37.040Z,100214.39
2018-01-19T15:44:05.328Z,100210.48
2018-01-19T15:46:33.725Z,100215.79
2018-01-19T15:49:02.069Z,100207.72
2018-01-19T15:51:33.041Z,100210.64
2018-01-19T15:54:01.344Z,100206.87
2018-01-19T15:56:30.409Z,100205.78
2018-01-19T15:58:58.720Z,100212.38
2018-01-19T16:01:27.780Z,100211.83
2018-01-19T16:03:56.056Z,100215.33
2018-01-19T16:06:25.277Z,100216.30
2018-01-19T16:08:53.558Z,100210.44
2018-01-19T16:11:21.847Z,100213.91
2018-01-19T16:13:50.940Z,100206.86
2018-01-19T16:16:19.242Z,100205.07
2018-01-19T16:18:48.299Z,100204.28
2018-01-19T16:21:16.753Z,100207.97
2018-01-19T16:23:45.558Z,100207.41
2018-01-19T16:26:14.273Z,100204.25
2018-01-19T16:28:43.356Z,100215.20
2018-01-19T16:31:12.369Z,100213.41
2018-01-19T16:33:41.511Z,100202.42
2018-01-19T16:36:11.150Z,100203.89
2018-01-19T16:38:39.502Z,100207.78
2018-01-19T16:41:07.794Z,100212.58
2018-01-19T16:43:36.079Z,100211.88
2018-01-19T16:46:04.380Z,100215.91
2018-01-19T16:48:32.824Z,100234.61
2018-01-19T16:51:01.932Z,100235.21
2018-01-19T16:53:30.254Z,100229.99
2018-01-19T16:55:59.315Z,100233.28
2018-01-19T16:58:27.635Z,100237.27
2018-01-19T17:00:56.716Z,100231.84
2018-01-19T17:03:27.250Z,100234.06
2018-01-19T17:05:56.335Z,100224.57
2018-01-19T17:08:25.191Z,100222.25
2018-01-19T17:10:53.520Z,100228.23
2018-01-19T17:13:22.657Z,100232.96
2018-01-19T17:15:51.897Z,100235.98
2018-01-19T17:18:20.780Z,100233.84
2018-01-19T17:20:49.531Z,100229.58
2018-01-19T17:23:17.903Z,100231.20
2018-01-19T17:25:47.248Z,100233.53
2018-01-19T17:28:15.532Z,100235.86
2018-01-19T17:30:44.417Z,100227.88
2018-01-19T17:33:12.735Z,100227.41
2018-01-19T17:35:41.839Z,100227.78
2018-01-19T17:38:10.122Z,100226.67
2018-01-19T17:40:38.400Z,100223.67
2018-01-19T17:43:07.529Z,100227.48
2018-01-19T17:45:35.826Z,100232.02
2018-01-19T17:48:04.128Z,100235.06
2018-01-19T17:50:33.173Z,100236.69
2018-01-19T17:53:01.696Z,100237.83
2018-01-19T17:55:30.004Z,100240.27
2018-01-19T17:57:58.289Z,100244.91
2018-01-19T18:00:26.584Z,100241.94
2018-01-19T18:02:54.869Z,100244.91
2018-01-19T18:05:23.142Z,100243.73
2018-01-19T18:07:51.444Z,100242.08
2018-01-19T18:10:20.620Z,100248.68
2018-01-19T18:12:49.109Z,100244.91
2018-01-19T18:15:17.387Z,100248.34
2018-01-19T18:17:45.669Z,100243.78
2018-01-19T18:20:14.757Z,100246.71
2018-01-19T18:22:43.030Z,100251.83
2018-01-19T18:25:11.304Z,100252.02
2018-01-19T18:27:39.596Z,100250.70
2018-01-19T18:30:07.884Z,100249.58
2018-01-19T18:32:36.484Z,100252.17
2018-01-19T18:35:04.775Z,100254.16
2018-01-19T18:37:33.072Z,100247.55
2018-01-19T18:40:02.518Z,100250.69
2018-01-19T18:42:30.794Z,100251.00
2018-01-19T18:44:59.088Z,100251.23
2018-01-19T18:47:27.393Z,100246.97
2018-01-19T18:49:56.463Z,100246.06
2018-01-19T18:52:24.759Z,100251.22
2018-01-19T18:54:53.847Z,100251.16
2018-01-19T18:57:22.211Z,100252.27
2018-01-19T18:59:50.518Z,100246.32
2018-01-19T19:02:18.953Z,100260.01
2018-01-19T19:04:47.720Z,100256.72
2018-01-19T19:07:16.029Z,100254.14
2018-01-19T19:09:44.344Z,100256.39
2018-01-19T19:12:12.649Z,100251.98
2018-01-19T19:14:40.973Z,100251.39
2018-01-19T19:17:09.574Z,100256.14
2018-01-19T19:19:37.983Z,100255.00
2018-01-19T19:22:07.649Z,100257.86
2018-01-19T19:24:35.947Z,100258.22
2018-01-19T19:27:04.236Z,100249.73
2018-01-19T19:29:33.355Z,100256.86
2018-01-19T19:32:02.579Z,100257.27
2018-01-19T19:34:31.311Z,100258.95
2018-01-19T19:36:59.613Z,100259.80
2018-01-19T19:39:28.681Z,100260.46
2018-01-19T19:41:56.972Z,100269.56
2018-01-19T19:44:26.037Z,100265.06
2018-01-19T19:46:54.354Z,100267.13
2018-01-19T19:49:23.732Z,100267.57
2018-01-19T19:51:52.015Z,100267.34
2018-01-19T19:54:20.614Z,100269.69
2018-01-19T19:56:49.732Z,100271.02
2018-01-19T19:59:18.479Z,100271.14
2018-01-19T20:01:46.987Z,100271.98
2018-01-19T20:04:16.658Z,100273.21
2018-01-19T20:06:44.969Z,100273.42
2018-01-19T20:09:13.278Z,100276.00
2018-01-19T20:11:41.785Z,100273.25
2018-01-19T20:14:10.074Z,100277.99
2018-01-19T20:16:38.572Z,100279.47
2018-01-19T20:19:07.353Z,100276.85
2018-01-19T20:21:36.224Z,100269.10
2018-01-19T20:24:04.532Z,100271.53
2018-01-19T20:26:33.155Z,100272.34
2018-01-19T20:29:02.228Z,100274.70
2018-01-19T20:31:30.531Z,100271.22
2018-01-19T20:33:58.829Z,100277.89
2018-01-19T20:36:27.149Z,100277.16
2018-01-19T20:38:55.448Z,100277.22
2018-01-19T20:41:24.861Z,100277.89
2018-01-19T20:43:54.047Z,100279.26
2018-01-19T20:46:22.368Z,100271.78
2018-01-19T20:48:50.816Z,100276.08
2018-01-19T20:51:19.900Z,100282.02
2018-01-19T20:53:48.487Z,100285.74
2018-01-19T20:56:16.794Z,100284.16
2018-01-19T20:58:45.118Z,100283.14
2018-01-19T21:01:13.439Z,100288.52
2018-01-19T21:03:43.217Z,100281.69
2018-01-19T21:06:11.572Z,100279.58
2018-01-19T21:08:39.969Z,100281.56
2018-01-19T21:11:08.591Z,100283.14
2018-01-19T21:13:37.899Z,100279.41
2018-01-19T21:16:07.173Z,100282.29
2018-01-19T21:18:35.585Z,100284.02
2018-01-19T21:21:03.916Z,100288.73
2018-01-19T21:23:32.730Z,100282.06
2018-01-19T21:26:01.528Z,100281.92
2018-01-19T21:28:30.588Z,100281.69
2018-01-19T21:30:58.885Z,100280.50
2018-01-19T21:33:27.296Z,100279.75
2018-01-19T21:35:56.432Z,100281.28
2018-01-19T21:38:24.734Z,100281.77
2018-01-19T21:40:53.208Z,100278.07
2018-01-19T21:43:21.888Z,100279.23
2018-01-19T21:45:50.725Z,100278.28
2018-01-19T21:48:20.080Z,100277.45
2018-01-19T21:50:49.056Z,100279.58
2018-01-19T21:53:17.369Z,100274.94
2018-01-19T21:55:45.678Z,100279.05
2018-01-19T21:58:16.380Z,100282.73
2018-01-19T22:00:44.684Z,100283.89
2018-01-19T22:03:13.737Z,100277.14
2018-01-19T22:05:42.229Z,100284.83
2018-01-19T22:08:10.508Z,100285.26
2018-01-19T22:10:38.805Z,100289.00
2018-01-19T22:13:07.167Z,100283.14
2018-01-19T22:15:35.768Z,100287.11
2018-01-19T22:18:04.095Z,100288.77
2018-01-19T22:20:32.384Z,100287.02
2018-01-19T22:23:01.346Z,100292.97
2018-01-19T22:25:30.487Z,100290.67
2018-01-19T22:27:58.771Z,100287.25
2018-01-19T22:30:27.549Z,100287.73
2018-01-19T22:32:56.617Z,100296.03
2018-01-19T22:35:25.659Z,100288.04
2018-01-19T22:37:53.971Z,100290.50
2018-01-19T22:40:23.044Z,100288.25
2018-01-19T22:42:51.643Z,100284.84
2018-01-19T22:45:20.098Z,100288.69
2018-01-19T22:47:48.393Z,100288.66
2018-01-19T22:50:16.785Z,100287.94
2018-01-19T22:52:45.081Z,100291.03
2018-01-19T22:55:14.328Z,100284.75
2018-01-19T22:57:42.612Z,100284.34
2018-01-19T23:00:11.802Z,100283.56
2018-01-19T23:02:40.331Z,100284.70
2018-01-19T23:05:09.375Z,100288.04
2018-01-19T23:07:38.163Z,100292.51
2018-01-19T23:10:06.555Z,100284.10
2018-01-19T23:12:35.746Z,100288.00
2018-01-19T23:15:04.235Z,100296.31
2018-01-19T23:17:33.039Z,100287.73
2018-01-19T23:20:01.325Z,100294.17
2018-01-19T23:22:30.288Z,100285.32
2018-01-19T23:24:58.568Z,100292.84
2018-01-19T23:27:26.876Z,100293.21
2018-01-19T23:29:55.588Z,100292.90
2018-01-19T23:32:24.706Z,100290.41
2018-01-19T23:34:53.463Z,100286.56
2018-01-19T23:37:22.551Z,100286.34
2018-01-19T23:39:52.479Z,100286.76
2018-01-19T23:42:21.548Z,100277.45
2018-01-19T23:44:50.186Z,100275.80
2018-01-19T23:47:18.506Z,100275.45
2018-01-19T23:49:47.006Z,100277.06
2018-01-19T23:52:15.319Z,100274.61
2018-01-19T23:54:43.620Z,100275.90
2018-01-19T23:57:14.855Z,100282.62
2018-01-19T23:59:43.122Z,100282.23
